sensor_id;sensor_type;location;lat;lon;timestamp;P1;durP1;ratioP1;P2;durP2;ratioP2
42104;SDS011;70664;51.472;5.712;2023-06-22T00:00:58;2.40;;;1.60;;
42104;SDS011;70664;51.472;5.712;2023-06-22T00:03:25;1.92;;;1.60;;
42104;SDS011;70664;51.472;5.712;2023-06-22T00:05:51;3.47;;;1.60;;
42104;SDS011;70664;51.472;5.712;2023-06-22T00:08:18;2.58;;;1.45;;
42104;SDS011;70664;51.472;5.712;2023-06-22T00:10:45;2.17;;;1.75;;
42104;SDS011;70664;51.472;5.712;2023-06-22T00:13:12;2.25;;;1.40;;
42104;SDS011;70664;51.472;5.712;2023-06-22T00:15:40;2.50;;;1.60;;
42104;SDS011;70664;51.472;5.712;2023-06-22T00:18:07;2.30;;;1.63;;
42104;SDS011;70664;51.472;5.712;2023-06-22T00:20:34;1.75;;;1.42;;
42104;SDS011;70664;51.472;5.712;2023-06-22T00:23:02;2.25;;;1.60;;
42104;SDS011;70664;51.472;5.712;2023-06-22T00:25:37;1.90;;;1.42;;
42104;SDS011;70664;51.472;5.712;2023-06-22T00:28:05;2.95;;;2.08;;
42104;SDS011;70664;51.472;5.712;2023-06-22T00:30:32;2.75;;;2.03;;
42104;SDS011;70664;51.472;5.712;2023-06-22T00:32:59;1.92;;;1.60;;
42104;SDS011;70664;51.472;5.712;2023-06-22T00:35:25;2.25;;;1.63;;
42104;SDS011;70664;51.472;5.712;2023-06-22T00:37:54;2.40;;;1.67;;
42104;SDS011;70664;51.472;5.712;2023-06-22T00:40:26;3.35;;;1.85;;
42104;SDS011;70664;51.472;5.712;2023-06-22T00:42:53;2.00;;;1.42;;
42104;SDS011;70664;51.472;5.712;2023-06-22T00:45:20;2.45;;;1.70;;
42104;SDS011;70664;51.472;5.712;2023-06-22T00:47:48;2.30;;;1.60;;
42104;SDS011;70664;51.472;5.712;2023-06-22T00:50:22;2.17;;;1.50;;
42104;SDS011;70664;51.472;5.712;2023-06-22T00:52:51;1.63;;;1.40;;
42104;SDS011;70664;51.472;5.712;2023-06-22T00:55:21;2.28;;;1.55;;
42104;SDS011;70664;51.472;5.712;2023-06-22T00:57:48;2.90;;;1.60;;
42104;SDS011;70664;51.472;5.712;2023-06-22T01:00:15;2.38;;;1.67;;
42104;SDS011;70664;51.472;5.712;2023-06-22T01:02:43;2.75;;;1.73;;
42104;SDS011;70664;51.472;5.712;2023-06-22T01:05:14;3.13;;;1.42;;
42104;SDS011;70664;51.472;5.712;2023-06-22T01:07:45;2.55;;;1.60;;
42104;SDS011;70664;51.472;5.712;2023-06-22T01:13:26;2.58;;;1.55;;
42104;SDS011;70664;51.472;5.712;2023-06-22T01:16:20;3.67;;;1.77;;
42104;SDS011;70664;51.472;5.712;2023-06-22T01:18:53;3.47;;;1.60;;
42104;SDS011;70664;51.472;5.712;2023-06-22T01:21:25;2.63;;;1.55;;
42104;SDS011;70664;51.472;5.712;2023-06-22T01:27:09;2.95;;;1.80;;
42104;SDS011;70664;51.472;5.712;2023-06-22T01:29:57;2.63;;;1.65;;
42104;SDS011;70664;51.472;5.712;2023-06-22T01:32:33;2.15;;;1.50;;
42104;SDS011;70664;51.472;5.712;2023-06-22T01:35:01;2.20;;;1.50;;
42104;SDS011;70664;51.472;5.712;2023-06-22T01:37:31;2.83;;;1.73;;
42104;SDS011;70664;51.472;5.712;2023-06-22T01:39:59;2.45;;;1.58;;
42104;SDS011;70664;51.472;5.712;2023-06-22T01:42:27;1.73;;;1.60;;
42104;SDS011;70664;51.472;5.712;2023-06-22T01:44:53;2.67;;;1.80;;
42104;SDS011;70664;51.472;5.712;2023-06-22T01:47:20;2.40;;;1.50;;
42104;SDS011;70664;51.472;5.712;2023-06-22T01:49:50;1.80;;;1.50;;
42104;SDS011;70664;51.472;5.712;2023-06-22T01:52:17;2.55;;;1.80;;
42104;SDS011;70664;51.472;5.712;2023-06-22T01:54:43;2.08;;;1.60;;
42104;SDS011;70664;51.472;5.712;2023-06-22T01:57:09;2.55;;;1.70;;
42104;SDS011;70664;51.472;5.712;2023-06-22T02:02:25;2.40;;;1.60;;
42104;SDS011;70664;51.472;5.712;2023-06-22T02:05:10;2.60;;;1.60;;
42104;SDS011;70664;51.472;5.712;2023-06-22T02:07:41;2.78;;;1.80;;
42104;SDS011;70664;51.472;5.712;2023-06-22T02:10:19;2.05;;;1.85;;
42104;SDS011;70664;51.472;5.712;2023-06-22T02:12:46;2.38;;;1.60;;
42104;SDS011;70664;51.472;5.712;2023-06-22T02:15:13;2.15;;;1.95;;
42104;SDS011;70664;51.472;5.712;2023-06-22T02:17:39;1.70;;;1.60;;
42104;SDS011;70664;51.472;5.712;2023-06-22T02:20:11;1.90;;;1.67;;
42104;SDS011;70664;51.472;5.712;2023-06-22T02:22:39;2.65;;;1.70;;
42104;SDS011;70664;51.472;5.712;2023-06-22T02:25:05;2.90;;;1.65;;
42104;SDS011;70664;51.472;5.712;2023-06-22T02:27:31;3.22;;;1.83;;
42104;SDS011;70664;51.472;5.712;2023-06-22T02:29:57;2.28;;;1.55;;
42104;SDS011;70664;51.472;5.712;2023-06-22T02:32:23;2.65;;;1.77;;
42104;SDS011;70664;51.472;5.712;2023-06-22T02:34:49;2.17;;;1.67;;
42104;SDS011;70664;51.472;5.712;2023-06-22T02:37:15;1.92;;;1.65;;
42104;SDS011;70664;51.472;5.712;2023-06-22T02:39:42;2.67;;;1.75;;
42104;SDS011;70664;51.472;5.712;2023-06-22T02:42:08;3.47;;;1.70;;
42104;SDS011;70664;51.472;5.712;2023-06-22T02:44:35;2.22;;;1.67;;
42104;SDS011;70664;51.472;5.712;2023-06-22T02:47:02;2.35;;;1.60;;
42104;SDS011;70664;51.472;5.712;2023-06-22T02:49:28;2.47;;;1.52;;
42104;SDS011;70664;51.472;5.712;2023-06-22T02:51:54;2.22;;;1.65;;
42104;SDS011;70664;51.472;5.712;2023-06-22T02:54:20;2.78;;;1.70;;
42104;SDS011;70664;51.472;5.712;2023-06-22T02:56:46;2.95;;;1.80;;
42104;SDS011;70664;51.472;5.712;2023-06-22T02:59:13;2.05;;;1.73;;
42104;SDS011;70664;51.472;5.712;2023-06-22T03:01:39;1.88;;;1.60;;
42104;SDS011;70664;51.472;5.712;2023-06-22T03:04:08;1.95;;;1.73;;
42104;SDS011;70664;51.472;5.712;2023-06-22T03:06:34;1.77;;;1.67;;
42104;SDS011;70664;51.472;5.712;2023-06-22T03:09:04;2.55;;;1.90;;
42104;SDS011;70664;51.472;5.712;2023-06-22T03:11:31;2.45;;;1.85;;
42104;SDS011;70664;51.472;5.712;2023-06-22T03:13:58;4.38;;;1.48;;
42104;SDS011;70664;51.472;5.712;2023-06-22T03:16:25;1.90;;;1.63;;
42104;SDS011;70664;51.472;5.712;2023-06-22T03:18:51;2.63;;;1.80;;
42104;SDS011;70664;51.472;5.712;2023-06-22T03:21:18;3.90;;;1.88;;
42104;SDS011;70664;51.472;5.712;2023-06-22T03:23:45;2.30;;;1.73;;
42104;SDS011;70664;51.472;5.712;2023-06-22T03:26:10;2.75;;;1.88;;
42104;SDS011;70664;51.472;5.712;2023-06-22T03:28:37;2.60;;;1.80;;
42104;SDS011;70664;51.472;5.712;2023-06-22T03:31:03;4.00;;;1.85;;
42104;SDS011;70664;51.472;5.712;2023-06-22T03:33:31;2.20;;;1.92;;
42104;SDS011;70664;51.472;5.712;2023-06-22T03:35:57;2.13;;;1.60;;
42104;SDS011;70664;51.472;5.712;2023-06-22T03:38:23;2.65;;;1.80;;
42104;SDS011;70664;51.472;5.712;2023-06-22T03:40:49;1.60;;;1.50;;
42104;SDS011;70664;51.472;5.712;2023-06-22T03:43:14;2.22;;;1.50;;
42104;SDS011;70664;51.472;5.712;2023-06-22T03:45:40;2.13;;;1.83;;
42104;SDS011;70664;51.472;5.712;2023-06-22T03:48:06;1.98;;;1.70;;
42104;SDS011;70664;51.472;5.712;2023-06-22T03:50:32;2.10;;;1.55;;
42104;SDS011;70664;51.472;5.712;2023-06-22T03:52:58;2.53;;;1.70;;
42104;SDS011;70664;51.472;5.712;2023-06-22T03:55:24;2.15;;;1.75;;
42104;SDS011;70664;51.472;5.712;2023-06-22T03:57:50;2.00;;;1.77;;
42104;SDS011;70664;51.472;5.712;2023-06-22T04:00:15;2.28;;;1.70;;
42104;SDS011;70664;51.472;5.712;2023-06-22T04:02:41;2.92;;;1.90;;
42104;SDS011;70664;51.472;5.712;2023-06-22T04:05:08;5.20;;;1.98;;
42104;SDS011;70664;51.472;5.712;2023-06-22T04:07:35;3.08;;;1.88;;
42104;SDS011;70664;51.472;5.712;2023-06-22T04:10:04;3.30;;;1.67;;
42104;SDS011;70664;51.472;5.712;2023-06-22T04:12:30;2.30;;;1.70;;
42104;SDS011;70664;51.472;5.712;2023-06-22T04:14:56;1.95;;;1.60;;
42104;SDS011;70664;51.472;5.712;2023-06-22T04:17:22;2.17;;;1.65;;
42104;SDS011;70664;51.472;5.712;2023-06-22T04:19:50;2.20;;;1.70;;
42104;SDS011;70664;51.472;5.712;2023-06-22T04:22:16;2.22;;;1.70;;
42104;SDS011;70664;51.472;5.712;2023-06-22T04:24:42;2.00;;;1.70;;
42104;SDS011;70664;51.472;5.712;2023-06-22T04:27:09;2.20;;;1.90;;
42104;SDS011;70664;51.472;5.712;2023-06-22T04:29:35;2.00;;;1.80;;
42104;SDS011;70664;51.472;5.712;2023-06-22T04:32:01;2.13;;;1.75;;
42104;SDS011;70664;51.472;5.712;2023-06-22T04:34:30;3.30;;;1.90;;
42104;SDS011;70664;51.472;5.712;2023-06-22T04:36:56;2.53;;;1.80;;
42104;SDS011;70664;51.472;5.712;2023-06-22T04:39:22;2.05;;;1.73;;
42104;SDS011;70664;51.472;5.712;2023-06-22T04:41:48;2.22;;;1.80;;
42104;SDS011;70664;51.472;5.712;2023-06-22T04:44:19;2.80;;;1.92;;
42104;SDS011;70664;51.472;5.712;2023-06-22T04:46:51;1.88;;;1.67;;
42104;SDS011;70664;51.472;5.712;2023-06-22T04:49:27;2.55;;;1.98;;
42104;SDS011;70664;51.472;5.712;2023-06-22T04:52:05;2.20;;;1.60;;
42104;SDS011;70664;51.472;5.712;2023-06-22T04:54:33;2.08;;;1.75;;
42104;SDS011;70664;51.472;5.712;2023-06-22T04:57:04;2.55;;;1.85;;
42104;SDS011;70664;51.472;5.712;2023-06-22T04:59:35;2.03;;;1.60;;
42104;SDS011;70664;51.472;5.712;2023-06-22T05:02:04;2.30;;;1.67;;
42104;SDS011;70664;51.472;5.712;2023-06-22T05:04:33;2.40;;;2.20;;
42104;SDS011;70664;51.472;5.712;2023-06-22T05:07:03;3.38;;;1.88;;
42104;SDS011;70664;51.472;5.712;2023-06-22T05:09:29;2.08;;;1.88;;
42104;SDS011;70664;51.472;5.712;2023-06-22T05:11:55;2.13;;;1.92;;
42104;SDS011;70664;51.472;5.712;2023-06-22T05:14:21;2.28;;;1.67;;
42104;SDS011;70664;51.472;5.712;2023-06-22T05:16:48;2.20;;;1.60;;
42104;SDS011;70664;51.472;5.712;2023-06-22T05:19:16;2.42;;;1.95;;
42104;SDS011;70664;51.472;5.712;2023-06-22T05:21:42;2.58;;;1.95;;
42104;SDS011;70664;51.472;5.712;2023-06-22T05:24:08;1.92;;;1.75;;
42104;SDS011;70664;51.472;5.712;2023-06-22T05:26:34;1.80;;;1.70;;
42104;SDS011;70664;51.472;5.712;2023-06-22T05:29:01;2.35;;;1.88;;
42104;SDS011;70664;51.472;5.712;2023-06-22T05:31:28;3.65;;;1.90;;
42104;SDS011;70664;51.472;5.712;2023-06-22T05:33:54;2.30;;;2.10;;
42104;SDS011;70664;51.472;5.712;2023-06-22T05:36:21;1.95;;;1.75;;
42104;SDS011;70664;51.472;5.712;2023-06-22T05:38:50;2.22;;;1.90;;
42104;SDS011;70664;51.472;5.712;2023-06-22T05:41:17;2.22;;;1.90;;
42104;SDS011;70664;51.472;5.712;2023-06-22T05:43:43;2.83;;;2.20;;
42104;SDS011;70664;51.472;5.712;2023-06-22T05:46:09;2.40;;;1.90;;
42104;SDS011;70664;51.472;5.712;2023-06-22T05:48:34;2.42;;;2.08;;
42104;SDS011;70664;51.472;5.712;2023-06-22T05:51:00;2.42;;;2.00;;
42104;SDS011;70664;51.472;5.712;2023-06-22T05:53:26;2.65;;;2.00;;
42104;SDS011;70664;51.472;5.712;2023-06-22T05:55:52;2.15;;;1.90;;
42104;SDS011;70664;51.472;5.712;2023-06-22T05:58:18;2.05;;;1.80;;
42104;SDS011;70664;51.472;5.712;2023-06-22T06:00:44;2.22;;;2.03;;
42104;SDS011;70664;51.472;5.712;2023-06-22T06:03:11;2.40;;;2.03;;
42104;SDS011;70664;51.472;5.712;2023-06-22T06:05:37;2.70;;;2.00;;
42104;SDS011;70664;51.472;5.712;2023-06-22T06:08:04;2.85;;;2.10;;
42104;SDS011;70664;51.472;5.712;2023-06-22T06:10:31;7.10;;;5.28;;
42104;SDS011;70664;51.472;5.712;2023-06-22T06:12:58;9.13;;;6.13;;
42104;SDS011;70664;51.472;5.712;2023-06-22T06:15:27;9.88;;;7.30;;
42104;SDS011;70664;51.472;5.712;2023-06-22T06:17:53;13.23;;;7.07;;
42104;SDS011;70664;51.472;5.712;2023-06-22T06:20:23;15.63;;;7.47;;
42104;SDS011;70664;51.472;5.712;2023-06-22T06:22:50;11.57;;;7.80;;
42104;SDS011;70664;51.472;5.712;2023-06-22T06:25:17;11.68;;;8.35;;
42104;SDS011;70664;51.472;5.712;2023-06-22T06:27:48;9.13;;;6.70;;
42104;SDS011;70664;51.472;5.712;2023-06-22T06:30:17;11.27;;;8.02;;
42104;SDS011;70664;51.472;5.712;2023-06-22T06:32:44;12.63;;;8.27;;
42104;SDS011;70664;51.472;5.712;2023-06-22T06:35:11;12.77;;;8.68;;
42104;SDS011;70664;51.472;5.712;2023-06-22T06:37:40;10.98;;;8.65;;
42104;SDS011;70664;51.472;5.712;2023-06-22T06:40:09;10.32;;;8.25;;
42104;SDS011;70664;51.472;5.712;2023-06-22T06:42:40;13.25;;;9.10;;
42104;SDS011;70664;51.472;5.712;2023-06-22T06:45:17;15.68;;;9.30;;
42104;SDS011;70664;51.472;5.712;2023-06-22T06:47:45;12.55;;;9.18;;
42104;SDS011;70664;51.472;5.712;2023-06-22T06:50:11;10.65;;;8.63;;
42104;SDS011;70664;51.472;5.712;2023-06-22T06:52:38;13.80;;;8.60;;
42104;SDS011;70664;51.472;5.712;2023-06-22T06:55:04;10.25;;;8.95;;
42104;SDS011;70664;51.472;5.712;2023-06-22T06:57:36;12.25;;;8.73;;
42104;SDS011;70664;51.472;5.712;2023-06-22T07:00:05;12.50;;;9.20;;
42104;SDS011;70664;51.472;5.712;2023-06-22T07:02:37;14.88;;;11.57;;
42104;SDS011;70664;51.472;5.712;2023-06-22T07:05:07;17.45;;;12.02;;
42104;SDS011;70664;51.472;5.712;2023-06-22T07:07:34;18.02;;;12.25;;
42104;SDS011;70664;51.472;5.712;2023-06-22T07:10:00;16.90;;;12.68;;
42104;SDS011;70664;51.472;5.712;2023-06-22T07:12:28;17.75;;;12.88;;
42104;SDS011;70664;51.472;5.712;2023-06-22T07:15:01;15.90;;;13.18;;
42104;SDS011;70664;51.472;5.712;2023-06-22T07:17:28;18.50;;;13.80;;
42104;SDS011;70664;51.472;5.712;2023-06-22T07:19:54;21.05;;;14.05;;
42104;SDS011;70664;51.472;5.712;2023-06-22T07:22:20;19.98;;;13.13;;
42104;SDS011;70664;51.472;5.712;2023-06-22T07:24:46;18.00;;;14.27;;
42104;SDS011;70664;51.472;5.712;2023-06-22T07:27:11;16.10;;;14.13;;
42104;SDS011;70664;51.472;5.712;2023-06-22T07:29:37;20.27;;;14.60;;
42104;SDS011;70664;51.472;5.712;2023-06-22T07:32:05;15.50;;;13.73;;
42104;SDS011;70664;51.472;5.712;2023-06-22T07:34:31;16.48;;;14.00;;
42104;SDS011;70664;51.472;5.712;2023-06-22T07:36:58;16.77;;;13.32;;
42104;SDS011;70664;51.472;5.712;2023-06-22T07:39:24;15.60;;;12.98;;
42104;SDS011;70664;51.472;5.712;2023-06-22T07:41:51;18.15;;;13.60;;
42104;SDS011;70664;51.472;5.712;2023-06-22T07:44:17;19.92;;;14.05;;
42104;SDS011;70664;51.472;5.712;2023-06-22T07:46:43;18.65;;;13.48;;
42104;SDS011;70664;51.472;5.712;2023-06-22T07:49:09;17.38;;;13.60;;
42104;SDS011;70664;51.472;5.712;2023-06-22T07:51:35;18.83;;;14.30;;
42104;SDS011;70664;51.472;5.712;2023-06-22T07:54:01;18.73;;;13.60;;
42104;SDS011;70664;51.472;5.712;2023-06-22T07:56:27;19.15;;;14.35;;
42104;SDS011;70664;51.472;5.712;2023-06-22T07:58:52;18.63;;;13.05;;
42104;SDS011;70664;51.472;5.712;2023-06-22T08:01:18;16.60;;;13.55;;
42104;SDS011;70664;51.472;5.712;2023-06-22T08:03:47;16.17;;;13.20;;
42104;SDS011;70664;51.472;5.712;2023-06-22T08:06:13;16.80;;;13.55;;
42104;SDS011;70664;51.472;5.712;2023-06-22T08:08:39;20.27;;;13.23;;
42104;SDS011;70664;51.472;5.712;2023-06-22T08:11:07;22.73;;;13.07;;
42104;SDS011;70664;51.472;5.712;2023-06-22T08:13:33;17.98;;;12.90;;
42104;SDS011;70664;51.472;5.712;2023-06-22T08:15:59;20.63;;;13.48;;
42104;SDS011;70664;51.472;5.712;2023-06-22T08:18:25;19.67;;;13.68;;
42104;SDS011;70664;51.472;5.712;2023-06-22T08:20:51;21.20;;;13.32;;
42104;SDS011;70664;51.472;5.712;2023-06-22T08:23:17;16.73;;;12.70;;
42104;SDS011;70664;51.472;5.712;2023-06-22T08:25:43;19.60;;;13.57;;
42104;SDS011;70664;51.472;5.712;2023-06-22T08:28:09;17.25;;;12.85;;
42104;SDS011;70664;51.472;5.712;2023-06-22T08:30:35;17.75;;;12.88;;
42104;SDS011;70664;51.472;5.712;2023-06-22T08:33:01;20.52;;;14.80;;
42104;SDS011;70664;51.472;5.712;2023-06-22T08:35:27;27.02;;;20.48;;
42104;SDS011;70664;51.472;5.712;2023-06-22T08:37:54;34.60;;;27.67;;
42104;SDS011;70664;51.472;5.712;2023-06-22T08:40:22;42.30;;;30.45;;
42104;SDS011;70664;51.472;5.712;2023-06-22T08:42:50;34.30;;;28.08;;
42104;SDS011;70664;51.472;5.712;2023-06-22T08:45:16;40.25;;;29.33;;
42104;SDS011;70664;51.472;5.712;2023-06-22T08:47:42;38.13;;;29.23;;
42104;SDS011;70664;51.472;5.712;2023-06-22T08:50:09;33.83;;;27.13;;
42104;SDS011;70664;51.472;5.712;2023-06-22T08:52:37;33.15;;;27.73;;
42104;SDS011;70664;51.472;5.712;2023-06-22T08:55:06;33.92;;;26.20;;
42104;SDS011;70664;51.472;5.712;2023-06-22T08:57:33;29.00;;;25.65;;
42104;SDS011;70664;51.472;5.712;2023-06-22T08:59:59;31.08;;;25.25;;
42104;SDS011;70664;51.472;5.712;2023-06-22T09:02:25;26.60;;;22.65;;
42104;SDS011;70664;51.472;5.712;2023-06-22T09:04:55;30.08;;;22.70;;
42104;SDS011;70664;51.472;5.712;2023-06-22T09:07:22;26.77;;;21.70;;
42104;SDS011;70664;51.472;5.712;2023-06-22T09:09:50;24.42;;;20.77;;
42104;SDS011;70664;51.472;5.712;2023-06-22T09:12:16;26.17;;;20.30;;
42104;SDS011;70664;51.472;5.712;2023-06-22T09:14:47;24.08;;;19.63;;
42104;SDS011;70664;51.472;5.712;2023-06-22T09:17:13;26.02;;;21.45;;
42104;SDS011;70664;51.472;5.712;2023-06-22T09:19:39;24.58;;;19.15;;
42104;SDS011;70664;51.472;5.712;2023-06-22T09:22:05;25.38;;;19.92;;
42104;SDS011;70664;51.472;5.712;2023-06-22T09:24:31;27.05;;;19.45;;
42104;SDS011;70664;51.472;5.712;2023-06-22T09:26:58;24.88;;;19.15;;
42104;SDS011;70664;51.472;5.712;2023-06-22T09:29:24;25.73;;;20.00;;
42104;SDS011;70664;51.472;5.712;2023-06-22T09:31:50;25.88;;;18.45;;
42104;SDS011;70664;51.472;5.712;2023-06-22T09:34:18;21.33;;;18.35;;
42104;SDS011;70664;51.472;5.712;2023-06-22T09:36:45;22.92;;;18.33;;
42104;SDS011;70664;51.472;5.712;2023-06-22T09:39:12;21.75;;;17.77;;
42104;SDS011;70664;51.472;5.712;2023-06-22T09:41:38;20.77;;;16.67;;
42104;SDS011;70664;51.472;5.712;2023-06-22T09:44:04;20.27;;;18.08;;
42104;SDS011;70664;51.472;5.712;2023-06-22T09:46:30;18.83;;;16.80;;
42104;SDS011;70664;51.472;5.712;2023-06-22T09:48:55;19.75;;;17.30;;
42104;SDS011;70664;51.472;5.712;2023-06-22T09:51:22;21.00;;;17.77;;
42104;SDS011;70664;51.472;5.712;2023-06-22T09:53:49;20.23;;;16.23;;
42104;SDS011;70664;51.472;5.712;2023-06-22T09:56:15;18.60;;;15.73;;
42104;SDS011;70664;51.472;5.712;2023-06-22T09:58:42;19.92;;;16.50;;
42104;SDS011;70664;51.472;5.712;2023-06-22T10:01:08;18.77;;;15.93;;
42104;SDS011;70664;51.472;5.712;2023-06-22T10:03:35;23.55;;;16.50;;
42104;SDS011;70664;51.472;5.712;2023-06-22T10:06:02;19.17;;;16.15;;
42104;SDS011;70664;51.472;5.712;2023-06-22T10:08:28;16.95;;;15.10;;
42104;SDS011;70664;51.472;5.712;2023-06-22T10:10:54;17.63;;;14.85;;
42104;SDS011;70664;51.472;5.712;2023-06-22T10:13:20;17.27;;;14.23;;
42104;SDS011;70664;51.472;5.712;2023-06-22T10:15:45;20.42;;;15.55;;
42104;SDS011;70664;51.472;5.712;2023-06-22T10:18:16;19.45;;;14.30;;
42104;SDS011;70664;51.472;5.712;2023-06-22T10:20:42;20.75;;;13.00;;
42104;SDS011;70664;51.472;5.712;2023-06-22T10:23:09;17.80;;;13.40;;
42104;SDS011;70664;51.472;5.712;2023-06-22T10:25:34;20.55;;;14.32;;
42104;SDS011;70664;51.472;5.712;2023-06-22T10:28:00;17.83;;;14.07;;
42104;SDS011;70664;51.472;5.712;2023-06-22T10:30:26;18.65;;;14.13;;
42104;SDS011;70664;51.472;5.712;2023-06-22T10:32:53;17.08;;;13.88;;
42104;SDS011;70664;51.472;5.712;2023-06-22T10:35:19;17.33;;;14.00;;
42104;SDS011;70664;51.472;5.712;2023-06-22T10:37:45;19.00;;;13.55;;
42104;SDS011;70664;51.472;5.712;2023-06-22T10:40:12;17.83;;;13.68;;
42104;SDS011;70664;51.472;5.712;2023-06-22T10:42:40;18.25;;;13.75;;
42104;SDS011;70664;51.472;5.712;2023-06-22T10:45:06;17.55;;;13.95;;
42104;SDS011;70664;51.472;5.712;2023-06-22T10:47:34;18.60;;;14.85;;
42104;SDS011;70664;51.472;5.712;2023-06-22T10:50:01;20.80;;;14.48;;
42104;SDS011;70664;51.472;5.712;2023-06-22T10:52:27;16.13;;;14.43;;
42104;SDS011;70664;51.472;5.712;2023-06-22T10:54:53;20.23;;;14.85;;
42104;SDS011;70664;51.472;5.712;2023-06-22T10:57:18;22.10;;;15.75;;
42104;SDS011;70664;51.472;5.712;2023-06-22T10:59:44;18.52;;;15.60;;
42104;SDS011;70664;51.472;5.712;2023-06-22T11:02:10;21.35;;;15.02;;
42104;SDS011;70664;51.472;5.712;2023-06-22T11:04:36;21.08;;;15.63;;
42104;SDS011;70664;51.472;5.712;2023-06-22T11:07:02;23.98;;;16.75;;
42104;SDS011;70664;51.472;5.712;2023-06-22T11:09:28;25.10;;;16.83;;
42104;SDS011;70664;51.472;5.712;2023-06-22T11:11:55;25.75;;;17.10;;
42104;SDS011;70664;51.472;5.712;2023-06-22T11:14:21;23.55;;;16.45;;
42104;SDS011;70664;51.472;5.712;2023-06-22T11:16:48;26.45;;;17.73;;
42104;SDS011;70664;51.472;5.712;2023-06-22T11:19:14;27.30;;;18.88;;
42104;SDS011;70664;51.472;5.712;2023-06-22T11:21:40;23.55;;;16.92;;
42104;SDS011;70664;51.472;5.712;2023-06-22T11:24:06;24.77;;;16.90;;
42104;SDS011;70664;51.472;5.712;2023-06-22T11:26:32;19.98;;;15.18;;
42104;SDS011;70664;51.472;5.712;2023-06-22T11:28:58;24.98;;;15.75;;
42104;SDS011;70664;51.472;5.712;2023-06-22T11:31:24;22.98;;;16.48;;
42104;SDS011;70664;51.472;5.712;2023-06-22T11:33:53;27.98;;;16.77;;
42104;SDS011;70664;51.472;5.712;2023-06-22T11:36:19;21.20;;;14.82;;
42104;SDS011;70664;51.472;5.712;2023-06-22T11:38:45;22.27;;;15.98;;
42104;SDS011;70664;51.472;5.712;2023-06-22T11:41:11;29.20;;;16.27;;
42104;SDS011;70664;51.472;5.712;2023-06-22T11:43:36;22.73;;;16.05;;
42104;SDS011;70664;51.472;5.712;2023-06-22T11:46:03;22.15;;;15.27;;
42104;SDS011;70664;51.472;5.712;2023-06-22T11:48:29;20.02;;;15.50;;
42104;SDS011;70664;51.472;5.712;2023-06-22T11:50:55;21.75;;;14.93;;
42104;SDS011;70664;51.472;5.712;2023-06-22T11:53:23;19.50;;;15.02;;
42104;SDS011;70664;51.472;5.712;2023-06-22T11:55:51;19.15;;;14.70;;
42104;SDS011;70664;51.472;5.712;2023-06-22T11:58:19;20.92;;;14.60;;
42104;SDS011;70664;51.472;5.712;2023-06-22T12:00:44;23.58;;;15.70;;
42104;SDS011;70664;51.472;5.712;2023-06-22T12:03:10;18.08;;;14.93;;
42104;SDS011;70664;51.472;5.712;2023-06-22T12:05:37;20.55;;;14.88;;
42104;SDS011;70664;51.472;5.712;2023-06-22T12:08:03;19.65;;;15.05;;
42104;SDS011;70664;51.472;5.712;2023-06-22T12:10:30;18.42;;;14.25;;
42104;SDS011;70664;51.472;5.712;2023-06-22T12:12:56;19.65;;;14.25;;
42104;SDS011;70664;51.472;5.712;2023-06-22T12:15:25;17.95;;;14.65;;
42104;SDS011;70664;51.472;5.712;2023-06-22T12:17:51;18.65;;;15.15;;
42104;SDS011;70664;51.472;5.712;2023-06-22T12:20:18;18.95;;;14.90;;
42104;SDS011;70664;51.472;5.712;2023-06-22T12:22:44;16.85;;;13.98;;
42104;SDS011;70664;51.472;5.712;2023-06-22T12:25:10;17.42;;;13.95;;
42104;SDS011;70664;51.472;5.712;2023-06-22T12:27:36;17.42;;;14.68;;
42104;SDS011;70664;51.472;5.712;2023-06-22T12:30:03;18.35;;;14.93;;
42104;SDS011;70664;51.472;5.712;2023-06-22T12:32:30;17.38;;;14.05;;
42104;SDS011;70664;51.472;5.712;2023-06-22T12:34:56;17.02;;;14.45;;
42104;SDS011;70664;51.472;5.712;2023-06-22T12:37:22;18.48;;;13.88;;
42104;SDS011;70664;51.472;5.712;2023-06-22T12:39:48;16.65;;;13.55;;
42104;SDS011;70664;51.472;5.712;2023-06-22T12:42:15;17.77;;;14.07;;
42104;SDS011;70664;51.472;5.712;2023-06-22T12:44:41;17.85;;;14.20;;
42104;SDS011;70664;51.472;5.712;2023-06-22T12:47:08;15.55;;;13.68;;
42104;SDS011;70664;51.472;5.712;2023-06-22T12:49:34;15.43;;;13.70;;
42104;SDS011;70664;51.472;5.712;2023-06-22T12:52:01;17.83;;;14.27;;
42104;SDS011;70664;51.472;5.712;2023-06-22T12:54:27;16.65;;;14.35;;
42104;SDS011;70664;51.472;5.712;2023-06-22T12:56:54;23.45;;;18.33;;
42104;SDS011;70664;51.472;5.712;2023-06-22T12:59:21;20.13;;;16.95;;
42104;SDS011;70664;51.472;5.712;2023-06-22T13:01:47;25.77;;;17.15;;
42104;SDS011;70664;51.472;5.712;2023-06-22T13:04:12;21.65;;;18.42;;
42104;SDS011;70664;51.472;5.712;2023-06-22T13:06:43;22.23;;;19.00;;
42104;SDS011;70664;51.472;5.712;2023-06-22T13:09:13;20.80;;;18.55;;
42104;SDS011;70664;51.472;5.712;2023-06-22T13:11:40;20.95;;;18.58;;
42104;SDS011;70664;51.472;5.712;2023-06-22T13:14:06;24.05;;;18.17;;
42104;SDS011;70664;51.472;5.712;2023-06-22T13:16:32;20.50;;;17.58;;
42104;SDS011;70664;51.472;5.712;2023-06-22T13:18:58;20.50;;;18.38;;
42104;SDS011;70664;51.472;5.712;2023-06-22T13:21:24;20.70;;;18.42;;
42104;SDS011;70664;51.472;5.712;2023-06-22T13:23:50;20.13;;;17.80;;
42104;SDS011;70664;51.472;5.712;2023-06-22T13:26:16;20.08;;;17.92;;
42104;SDS011;70664;51.472;5.712;2023-06-22T13:28:42;23.45;;;19.33;;
42104;SDS011;70664;51.472;5.712;2023-06-22T13:31:07;23.10;;;19.80;;
42104;SDS011;70664;51.472;5.712;2023-06-22T13:33:33;22.13;;;19.17;;
42104;SDS011;70664;51.472;5.712;2023-06-22T13:35:59;22.02;;;19.08;;
42104;SDS011;70664;51.472;5.712;2023-06-22T13:38:25;21.42;;;18.27;;
42104;SDS011;70664;51.472;5.712;2023-06-22T13:40:51;21.05;;;18.85;;
42104;SDS011;70664;51.472;5.712;2023-06-22T13:43:17;22.33;;;18.42;;
42104;SDS011;70664;51.472;5.712;2023-06-22T13:45:42;21.10;;;17.30;;
42104;SDS011;70664;51.472;5.712;2023-06-22T13:48:09;21.60;;;17.00;;
42104;SDS011;70664;51.472;5.712;2023-06-22T13:50:35;18.15;;;16.20;;
42104;SDS011;70664;51.472;5.712;2023-06-22T13:53:01;20.77;;;17.40;;
42104;SDS011;70664;51.472;5.712;2023-06-22T13:55:27;21.13;;;17.40;;
42104;SDS011;70664;51.472;5.712;2023-06-22T13:57:53;19.80;;;16.85;;
42104;SDS011;70664;51.472;5.712;2023-06-22T14:00:19;19.60;;;17.33;;
42104;SDS011;70664;51.472;5.712;2023-06-22T14:02:45;20.30;;;16.58;;
42104;SDS011;70664;51.472;5.712;2023-06-22T14:05:10;18.88;;;15.57;;
42104;SDS011;70664;51.472;5.712;2023-06-22T14:07:37;15.95;;;13.70;;
42104;SDS011;70664;51.472;5.712;2023-06-22T14:10:03;16.20;;;12.60;;
42104;SDS011;70664;51.472;5.712;2023-06-22T14:12:29;16.23;;;12.10;;
42104;SDS011;70664;51.472;5.712;2023-06-22T14:14:55;13.15;;;11.13;;
42104;SDS011;70664;51.472;5.712;2023-06-22T14:17:22;13.35;;;10.73;;
42104;SDS011;70664;51.472;5.712;2023-06-22T14:19:50;12.45;;;9.57;;
42104;SDS011;70664;51.472;5.712;2023-06-22T14:22:18;11.73;;;9.48;;
42104;SDS011;70664;51.472;5.712;2023-06-22T14:24:45;11.10;;;9.63;;
42104;SDS011;70664;51.472;5.712;2023-06-22T14:27:12;12.18;;;9.57;;
42104;SDS011;70664;51.472;5.712;2023-06-22T14:29:38;13.75;;;9.27;;
42104;SDS011;70664;51.472;5.712;2023-06-22T14:32:03;14.35;;;9.63;;
42104;SDS011;70664;51.472;5.712;2023-06-22T14:34:31;10.77;;;9.00;;
42104;SDS011;70664;51.472;5.712;2023-06-22T14:37:00;12.32;;;9.02;;
42104;SDS011;70664;51.472;5.712;2023-06-22T14:39:30;10.52;;;8.23;;
42104;SDS011;70664;51.472;5.712;2023-06-22T14:41:56;9.82;;;8.35;;